Aviation Digital Data Service (ADDS)

Output produced by METARs form (1826 UTC 16 August 2018)
found at http://www.aviationweather.gov/adds/metars/
 
KPAE 161724Z 1618/1718 24006KT 2SM BR OVC007 
     FM162000 25006KT P6SM SKC 
     FM170000 33006KT P6SM SKC 
     FM170600 01003KT P6SM SCT020 
     FM171300 35003KT 1SM BR OVC002
       
TAF KPAM 161800Z 1618/1724 19006KT 9999 SCT030 QNH3012INS 
     BECMG 1714/1715 19009KT 9999 BKN020 QNH3013INS 
     TEMPO 1715/1718 19010G15KT 4800 -TSRA BKN020CB 
     BECMG 1720/1721 19006KT 9999 SCT040 QNH3011INS TX30/1718Z TN25/1711Z
       
KPBF 161730Z 1618/1718 23009KT P6SM SCT050 
     FM170100 24006KT P6SM SCT035 BKN100 
     FM171200 19004KT P6SM SCT040 OVC250
       
KPBG 161720Z 1618/1718 01006KT P6SM FEW250 
     FM170800 00000KT P6SM BKN120 
     FM171100 15005KT P6SM VCSH OVC060 
     FM171300 15006KT 6SM -SHRA BR OVC040
       
KPBI 161732Z 1618/1718 12015KT P6SM SCT025 SCT035 SCT250 
     FM170100 11008KT P6SM SKC 
     FM171400 11012KT P6SM SCT035
       
KPDK 161720Z 1618/1718 20006KT P6SM VCSH SCT045 
     FM170100 20005KT P6SM FEW050 SCT250 
     FM170800 20004KT P6SM SCT100 SCT250 
     FM171500 23006KT P6SM BKN040
       
KPDT 161726Z 1618/1718 29008G16KT 4SM HZ VCSH FEW045 SCT060 BKN100 
     FM162000 32008KT 4SM HZ FEW100 SCT150 
     FM170300 22008G16KT 5SM HZ VCTS SCT080 BKN100CB 
     FM171100 18005KT 5SM HZ SCT100 BKN150 
     FM171700 28010G16KT P6SM FEW100 SCT150
       
KPDX 161732Z 1618/1718 32003KT P6SM OVC015 
     FM161830 31005KT P6SM SCT015 SCT250 
     FM162100 33008KT P6SM SCT250 
     FM171100 33004KT P6SM OVC020
       
KPGA 161720Z 1618/1718 VRB05KT P6SM SCT120
       
KPGD 161730Z 1618/1718 13008KT P6SM SCT035 SCT250 
     FM161900 18007KT P6SM VCTS SCT040CB BKN060 BKN250 
     FM170400 VRB03KT P6SM FEW040 SCT120 BKN250 
     FM171400 14007KT P6SM SCT025 SCT250
       
KPGV 161730Z 1618/1718 23005KT P6SM SCT045 
     FM170000 18004KT P6SM FEW150 AMD LTD TO CLD VIS AND WIND
       
KPHF 161732Z 1618/1718 24005KT P6SM SCT060 
     FM162300 21005KT P6SM SKC 
     FM170400 19006KT P6SM SKC 
     FM171200 22008KT P6SM FEW200
       
KPHL 161720Z 1618/1724 20007KT P6SM FEW050 BKN200 
     FM171200 20005KT P6SM BKN150 
     FM172200 21009KT P6SM SHRA VCTS OVC050CB
       
KPHX 161736Z 1618/1724 26007KT P6SM FEW150 BKN200 
     FM170000 23018G28KT P6SM SCT100 SCT150 SCT250 
     FM170200 25006KT P6SM SCT080 SCT150 BKN250
       
KPIA 161738Z 1618/1718 17005KT P6SM VCSH SCT015 BKN035 
     FM170000 VRB03KT P6SM VCTS SCT035CB BKN250 
     FM171000 VRB03KT P6SM BKN015 
     FM171500 VRB03KT P6SM BKN030
       
KPIB 161759Z 1618/1718 19006KT P6SM VCTS SCT030 BKN050CB BKN250 
     FM170000 17005KT P6SM FEW050 SCT250 
     FM170900 00000KT 5SM BR FEW015 SCT250 
     FM171400 24006KT P6SM SCT030
       
KPIE 161730Z 1618/1718 32006KT P6SM VCTS SCT035CB BKN070 BKN250 
     FM170100 VRB04KT P6SM FEW040 SCT120 BKN250 
     FM171400 14008KT P6SM SCT025 SCT250
       
KPIH 161726Z 1618/1718 VRB04KT P6SM BKN150
       
KPIR 161720Z 1618/1718 VRB04KT P6SM FEW200
       
KPIT 161746Z 1618/1724 21008KT 6SM -SHRA VCTS BKN060CB 
     TEMPO 1618/1619 4SM -TSRA BKN040CB 
     FM170300 18005KT 5SM -SHRA BR SCT015 OVC080 
     FM171200 21008KT P6SM VCSH OVC015 
     FM171800 24010G18KT P6SM VCTS OVC025CB
       
KPKB 161739Z 1618/1718 25006KT P6SM VCSH SCT050 
     TEMPO 1618/1619 6SM SHRA OVC025 
     FM161900 19007KT 6SM SHRA OVC050 
     FM170800 20006KT 4SM SHRA OVC030 
     FM171500 23008KT 6SM SHRA OVC040
       
KPMD 161727Z 1618/1718 02003KT P6SM FEW080 
     FM161900 25012KT P6SM FEW080 
     FM162100 24014G24KT P6SM VCTS SCT080CB BKN150 
     FM170200 24012KT P6SM SKC 
     FM170700 21006KT P6SM SKC 
     FM171400 VRB03KT P6SM SKC
       
KPNA 161720Z 1618/1718 31007KT P6SM SKC 
     FM162100 30010G18KT P6SM FEW110 BKN200 
     FM170200 31007KT P6SM SCT110 AMD LTD TO CLD VIS AND WIND
       
KPNE 161720Z 1618/1718 26007KT P6SM SCT150 
     FM171200 20007KT P6SM BKN150
       
KPNS 161721Z 1618/1718 26006KT P6SM VCSH SCT025 BKN070 
     TEMPO 1618/1620 4SM -TSRA BKN025CB 
     FM162100 18010KT P6SM SCT025 
     FM170100 17005KT P6SM OVC250
       
TAF KPOB 161700Z 1617/1723 21006KT 9999 FEW030 SCT090 QNH2991INS 
     TEMPO 1619/1701 21009KT 8000 -SHRA VCTS SCT030CB SCT060 
     BECMG 1705/1706 19005KT 6000 BR SCT005 SCT080 QNH2996INS 
     BECMG 1714/1715 23009KT 9999 NSW FEW009 SCT040 QNH2994INS 
     BECMG 1717/1718 20006KT 8000 -SHRA SCT030 SCT080 QNH2993INS 
     TEMPO 1719/1723 VRB12G18KT 4800 -TSRA BKN035CB TX35/1621Z TN23/1711Z
       
KPOU 161741Z 1618/1718 28006KT P6SM FEW250 
     FM170000 00000KT P6SM SCT060 
     FM170800 00000KT P6SM BKN090
       
KPQI 161724Z 1618/1718 34009G16KT P6SM BKN045 
     FM162100 33008KT P6SM SCT050 
     FM170100 30004KT P6SM FEW070 
     FM170500 VRB03KT P6SM SKC 
     FM170900 VRB02KT 3SM BR FEW250 
     FM171100 VRB02KT P6SM SCT250 
     FM171600 19003KT P6SM SCT120 BKN220
       
KPRB 161727Z 1618/1718 00000KT P6SM SKC 
     FM162000 22008KT P6SM SKC 
     FM162300 21015KT P6SM SKC 
     FM170300 28008KT P6SM SKC 
     FM171000 VRB03KT P6SM SKC 
     FM171600 23005KT P6SM SKC
       
KPRC 161720Z 1618/1718 VRB05KT P6SM BKN110 
     FM161900 27007KT P6SM SCT060 BKN110 
     TEMPO 1620/1624 VRB15G25KT 5SM TSRA BKN060CB 
     FM170200 VRB05KT P6SM SCT120
       
KPSC 161726Z 1618/1718 30006KT 3SM HZ FU FEW100 SCT150 
     FM170300 20007KT 4SM HZ VCTS SCT100 BKN150CB 
     FM171100 20005KT 5SM HZ SCT100 BKN150 
     FM171700 22009KT P6SM FEW100 SCT150
       
KPSF 161741Z 1618/1718 25010KT P6SM VCSH SCT045 SCT250 
     FM162330 VRB03KT P6SM FEW045 SCT250 
     FM171000 00000KT 6SM BR VCSH BKN060 
     PROB30 1710/1716 4SM -SHRA BR BKN040 
     FM171600 19007KT 6SM -SHRA VCTS BKN040CB
       
KPSM 161724Z 1618/1718 27008KT P6SM FEW060 SCT250 
     FM171600 33008KT P6SM BKN050
       
KPSP 161740Z 1618/1718 11009KT P6SM SCT100 
     FM162100 11009KT P6SM VCTS SCT090CB BKN120 
     FM170000 11008KT P6SM BKN100 
     FM170200 32006KT P6SM SCT100
       
KPUB 161729Z 1618/1718 VRB05KT P6SM FEW150 SCT250 
     FM162200 10013KT P6SM VCTS SCT100CB BKN150 
     FM170200 34015KT P6SM SCT120 BKN150 
     FM170600 VRB03KT P6SM SCT150 BKN200
       
KPUW 161720Z 1618/1718 13005KT 4SM FU HZ SCT040 BKN120 
     FM162100 26006G10KT 4SM FU HZ FEW045 SCT150 
     FM170200 26006KT 4SM FU HZ FEW045 SCT150 
     FM170900 VRB03KT 5SM FU HZ VCTS SCT080CB BKN120 
     PROB30 1709/1715 6SM -TSRA FU HZ BKN090CB BKN120
       
KPVD 161729Z 1618/1718 28010KT P6SM SCT045 
     FM170300 33005KT P6SM FEW045 
     FM171400 17006KT P6SM BKN040
       
KPVU 161726Z 1618/1718 26007KT P6SM SCT120 
     FM170400 14005KT P6SM SCT160
       
KPWM 161724Z 1618/1718 31005KT P6SM BKN050 
     FM170000 36003KT P6SM SCT050 
     FM170900 03003KT P6SM BKN040
       
KPWT 161724Z 1618/1718 22007KT P6SM BKN007 
     FM161900 20008KT P6SM SKC 
     FM170300 VRB04KT P6SM SKC 
     FM170800 18003KT P6SM BKN010 
     FM171000 20003KT 2SM BR OVC003